createdAt,value
2019-03-29T00:00:50.360Z,83.60
2019-03-29T00:02:51.501Z,84.50
2019-03-29T00:04:52.946Z,84.80
2019-03-29T00:06:54.497Z,84.70
2019-03-29T00:08:55.636Z,83.90
2019-03-29T00:10:57.111Z,84.10
2019-03-29T00:12:58.760Z,84.50
2019-03-29T00:15:00.155Z,85.00
2019-03-29T00:17:01.646Z,84.30
2019-03-29T00:19:02.782Z,84.80
2019-03-29T00:21:04.338Z,88.30
2019-03-29T00:23:05.473Z,89.70
2019-03-29T00:25:07.163Z,90.50
2019-03-29T00:27:08.674Z,90.70
2019-03-29T00:29:10.535Z,90.30
2019-03-29T00:31:11.685Z,88.50
2019-03-29T00:33:12.825Z,87.50
2019-03-29T00:35:13.969Z,86.40
2019-03-29T00:37:15.205Z,86.30
2019-03-29T00:39:16.409Z,86.00
2019-03-29T00:41:17.573Z,85.50
2019-03-29T00:43:19.030Z,84.60
2019-03-29T00:45:20.165Z,84.90
2019-03-29T00:47:21.317Z,84.60
2019-03-29T00:49:22.465Z,85.20
2019-03-29T00:51:24.204Z,84.20
2019-03-29T00:53:26.156Z,83.50
2019-03-29T00:55:27.713Z,83.20
2019-03-29T00:57:28.860Z,83.50
2019-03-29T00:59:29.999Z,82.90
2019-03-29T01:01:31.153Z,83.70
2019-03-29T01:03:32.284Z,83.80
2019-03-29T01:05:33.434Z,83.90
2019-03-29T01:07:34.578Z,84.00
2019-03-29T01:09:35.713Z,84.10
2019-03-29T01:11:37.131Z,83.80
2019-03-29T01:13:38.578Z,83.10
2019-03-29T01:15:39.733Z,83.90
2019-03-29T01:17:41.056Z,83.50
2019-03-29T01:19:42.626Z,85.10
2019-03-29T01:21:43.769Z,85.20
2019-03-29T01:23:44.908Z,85.40
2019-03-29T01:25:46.041Z,84.40
2019-03-29T01:27:47.194Z,84.40
2019-03-29T01:29:48.618Z,84.90
2019-03-29T01:31:50.165Z,84.30
2019-03-29T01:33:51.283Z,83.70
2019-03-29T01:35:52.775Z,83.60
2019-03-29T01:37:53.950Z,83.30
2019-03-29T01:39:55.089Z,83.30
2019-03-29T01:41:56.274Z,83.40
2019-03-29T01:43:57.413Z,83.90
2019-03-29T01:45:58.580Z,84.20
2019-03-29T01:47:59.729Z,83.90
2019-03-29T01:50:01.125Z,84.30
2019-03-29T01:52:02.269Z,84.20
2019-03-29T01:54:04.153Z,84.20
2019-03-29T01:56:05.561Z,83.70
2019-03-29T01:58:06.718Z,83.50
2019-03-29T02:00:09.277Z,83.40
2019-03-29T02:02:10.848Z,83.50
2019-03-29T02:04:12.000Z,83.50
2019-03-29T02:06:13.237Z,84.60
2019-03-29T02:08:14.386Z,84.40
2019-03-29T02:10:16.015Z,84.50
2019-03-29T02:12:17.045Z,84.90
2019-03-29T02:14:18.393Z,84.70
2019-03-29T02:16:19.845Z,85.00
2019-03-29T02:18:21.004Z,85.30
2019-03-29T02:20:22.176Z,84.00
2019-03-29T02:22:23.331Z,83.90
2019-03-29T02:24:24.526Z,84.20
2019-03-29T02:26:25.878Z,83.50
2019-03-29T02:28:27.456Z,83.70
2019-03-29T02:30:28.519Z,84.10
2019-03-29T02:32:29.668Z,84.30
2019-03-29T02:34:30.810Z,83.90
2019-03-29T02:36:31.959Z,83.80
2019-03-29T02:38:33.118Z,84.00
2019-03-29T02:40:34.263Z,83.80
2019-03-29T02:42:35.411Z,83.80
2019-03-29T02:44:36.554Z,83.30
2019-03-29T02:46:37.750Z,83.30
2019-03-29T02:48:38.918Z,83.30
2019-03-29T02:50:40.066Z,83.30
2019-03-29T02:52:41.226Z,83.00
2019-03-29T02:54:42.357Z,82.90
2019-03-29T02:56:43.560Z,83.10
2019-03-29T02:58:44.801Z,83.10
2019-03-29T03:00:45.947Z,83.00
2019-03-29T03:02:47.398Z,83.70
2019-03-29T03:04:49.173Z,84.10
2019-03-29T03:06:50.218Z,84.30
2019-03-29T03:08:51.479Z,84.60
2019-03-29T03:10:52.622Z,84.70
2019-03-29T03:12:53.759Z,84.90
2019-03-29T03:14:55.013Z,84.20
2019-03-29T03:16:56.171Z,84.10
2019-03-29T03:18:57.330Z,83.90
2019-03-29T03:20:58.554Z,83.80
2019-03-29T03:23:00.121Z,83.50
2019-03-29T03:25:01.286Z,83.80
2019-03-29T03:27:02.431Z,84.20
2019-03-29T03:29:03.580Z,84.00
2019-03-29T03:31:04.720Z,84.80
2019-03-29T03:33:06.163Z,85.40
2019-03-29T03:35:08.222Z,86.00
2019-03-29T03:37:09.363Z,86.30
2019-03-29T03:39:10.582Z,85.80
2019-03-29T03:41:11.830Z,85.30
2019-03-29T03:43:12.974Z,84.90
2019-03-29T03:45:14.222Z,84.60
2019-03-29T03:47:15.734Z,84.40
2019-03-29T03:49:16.972Z,84.60
2019-03-29T03:51:18.472Z,85.30
2019-03-29T03:53:23.084Z,84.90
2019-03-29T03:55:24.349Z,84.60
2019-03-29T03:57:26.405Z,84.90
2019-03-29T03:59:28.099Z,84.60
2019-03-29T04:01:29.246Z,84.40
2019-03-29T04:03:30.465Z,84.80
2019-03-29T04:05:31.890Z,84.90
2019-03-29T04:07:33.588Z,84.30
2019-03-29T04:09:48.382Z,84.10
2019-03-29T04:11:37.861Z,84.10
2019-03-29T04:13:39.054Z,84.30
2019-03-29T04:15:40.409Z,84.80
2019-03-29T04:17:41.714Z,84.80
2019-03-29T04:19:43.068Z,84.70
2019-03-29T04:21:44.207Z,84.30
2019-03-29T04:23:45.356Z,84.60
2019-03-29T04:25:46.898Z,84.60
2019-03-29T04:27:48.095Z,84.40
2019-03-29T04:29:49.241Z,84.50
2019-03-29T04:31:50.849Z,85.00
2019-03-29T04:33:52.062Z,84.70
2019-03-29T04:35:53.284Z,84.80
2019-03-29T04:37:54.421Z,84.60
2019-03-29T04:40:07.224Z,84.90
2019-03-29T04:41:58.624Z,85.80
2019-03-29T04:44:00.141Z,85.00
2019-03-29T04:46:01.304Z,85.50
2019-03-29T04:48:02.749Z,85.60
2019-03-29T04:50:05.397Z,87.40
2019-03-29T04:52:06.618Z,86.10
2019-03-29T04:54:07.778Z,86.90
2019-03-29T04:56:09.221Z,86.40
2019-03-29T04:58:10.579Z,86.20
2019-03-29T05:00:12.131Z,87.00
2019-03-29T05:02:13.246Z,86.40
2019-03-29T05:04:14.398Z,86.30
2019-03-29T05:06:15.546Z,85.80
2019-03-29T05:08:16.694Z,85.80
2019-03-29T05:10:21.500Z,85.80
2019-03-29T05:12:21.169Z,86.40
2019-03-29T05:14:22.334Z,86.30
2019-03-29T05:16:27.038Z,86.70
2019-03-29T05:18:28.417Z,86.70
2019-03-29T05:20:29.968Z,86.60
2019-03-29T05:22:31.107Z,86.90
2019-03-29T05:24:32.261Z,87.60
2019-03-29T05:26:33.405Z,88.20
2019-03-29T05:28:34.614Z,88.60
2019-03-29T05:30:36.022Z,88.60
2019-03-29T05:32:37.277Z,88.90
2019-03-29T05:34:38.477Z,89.20
2019-03-29T05:36:39.673Z,89.00
2019-03-29T05:38:41.169Z,88.50
2019-03-29T05:40:42.422Z,88.20
2019-03-29T05:42:44.038Z,88.10
2019-03-29T05:44:45.206Z,88.00
2019-03-29T05:46:46.347Z,88.20
2019-03-29T05:48:47.488Z,88.70
2019-03-29T05:50:48.695Z,88.60
2019-03-29T05:52:49.832Z,89.50
2019-03-29T05:54:50.981Z,90.30
2019-03-29T05:56:52.141Z,90.20
2019-03-29T05:58:53.358Z,90.10
2019-03-29T06:00:54.610Z,90.50
2019-03-29T06:02:55.836Z,90.50
2019-03-29T06:04:57.306Z,90.40
2019-03-29T06:06:58.509Z,90.30
2019-03-29T06:08:59.754Z,90.40
2019-03-29T06:11:01.022Z,90.60
2019-03-29T06:13:02.166Z,90.90
2019-03-29T06:15:04.322Z,90.80
2019-03-29T06:17:05.914Z,90.90
2019-03-29T06:19:07.061Z,91.20
2019-03-29T06:21:08.221Z,91.20
2019-03-29T06:23:09.367Z,91.70
2019-03-29T06:25:11.123Z,91.40
2019-03-29T06:27:12.587Z,91.40
2019-03-29T06:29:13.743Z,92.10
2019-03-29T06:31:15.570Z,92.20
2019-03-29T06:33:16.809Z,92.40
2019-03-29T06:35:18.083Z,91.70
2019-03-29T06:37:20.106Z,91.60
2019-03-29T06:39:22.554Z,91.70
2019-03-29T06:41:23.915Z,91.70
2019-03-29T06:43:25.222Z,91.80
2019-03-29T06:45:26.473Z,91.80
2019-03-29T06:47:28.001Z,91.80
2019-03-29T06:49:29.150Z,92.00
2019-03-29T06:51:30.308Z,91.80
2019-03-29T06:53:31.449Z,92.00
2019-03-29T06:55:32.777Z,92.00
2019-03-29T06:57:33.915Z,92.00
2019-03-29T06:59:35.059Z,93.70
2019-03-29T07:01:36.262Z,93.40
2019-03-29T07:03:37.403Z,93.00
2019-03-29T07:05:38.727Z,92.70
2019-03-29T07:07:40.302Z,92.90
2019-03-29T07:09:41.705Z,92.80
2019-03-29T07:11:43.301Z,93.30
2019-03-29T07:13:56.750Z,92.90
2019-03-29T07:15:47.394Z,93.30
2019-03-29T07:17:48.531Z,93.50
2019-03-29T07:19:49.783Z,93.40
2019-03-29T07:21:51.247Z,93.00
2019-03-29T07:23:52.883Z,93.20
2019-03-29T07:25:56.373Z,93.50
2019-03-29T07:27:57.113Z,93.60
2019-03-29T07:29:58.346Z,93.30
2019-03-29T07:31:59.509Z,93.30
2019-03-29T07:34:00.639Z,93.20
2019-03-29T07:36:01.790Z,93.50
2019-03-29T07:38:02.929Z,93.40
2019-03-29T07:40:05.251Z,93.10
2019-03-29T07:42:06.403Z,93.20
2019-03-29T07:44:07.698Z,93.60
2019-03-29T07:46:10.746Z,93.00
2019-03-29T07:48:11.894Z,93.20
2019-03-29T07:50:14.964Z,92.80
2019-03-29T07:52:16.116Z,92.80
2019-03-29T07:54:17.635Z,93.40
2019-03-29T07:56:18.808Z,93.40
2019-03-29T07:58:19.963Z,93.20
2019-03-29T08:00:21.105Z,93.30
2019-03-29T08:02:22.842Z,93.10
2019-03-29T08:04:24.246Z,93.00
2019-03-29T08:06:25.643Z,92.80
2019-03-29T08:08:32.303Z,92.80
2019-03-29T08:10:31.497Z,92.30
2019-03-29T08:12:33.477Z,91.80
2019-03-29T08:14:35.017Z,91.70
2019-03-29T08:16:36.168Z,91.70
2019-03-29T08:18:37.316Z,91.40
2019-03-29T08:20:43.479Z,91.20
2019-03-29T08:22:41.645Z,91.20
2019-03-29T08:24:42.806Z,90.90
2019-03-29T08:26:43.955Z,90.80
2019-03-29T08:28:45.097Z,90.40
2019-03-29T08:30:46.332Z,90.80
2019-03-29T08:32:47.598Z,90.80
2019-03-29T08:34:48.811Z,90.10
2019-03-29T08:36:50.260Z,90.70
2019-03-29T08:38:51.398Z,90.40
2019-03-29T08:40:52.541Z,90.40
2019-03-29T08:42:53.689Z,88.10
2019-03-29T08:44:54.850Z,90.40
2019-03-29T08:46:56.119Z,89.60
2019-03-29T08:48:57.402Z,87.30
2019-03-29T08:50:58.542Z,83.20
2019-03-29T08:53:00.040Z,81.00
2019-03-29T08:55:01.373Z,81.40
2019-03-29T08:57:02.635Z,82.20
2019-03-29T08:59:03.779Z,83.00
2019-03-29T09:01:04.946Z,80.80
2019-03-29T09:03:06.104Z,80.40
2019-03-29T09:05:07.458Z,80.80
2019-03-29T09:07:08.615Z,81.30
2019-03-29T09:09:12.044Z,77.10
2019-03-29T09:11:12.813Z,79.20
2019-03-29T09:13:14.096Z,79.70
2019-03-29T09:15:17.483Z,78.20
2019-03-29T09:17:18.727Z,80.30
2019-03-29T09:19:20.447Z,75.30
2019-03-29T09:21:21.733Z,78.00
2019-03-29T09:23:23.077Z,76.50
2019-03-29T09:25:24.294Z,76.80
2019-03-29T09:27:25.758Z,76.30
2019-03-29T09:29:27.202Z,74.80
2019-03-29T09:31:28.389Z,73.70
2019-03-29T09:33:29.550Z,73.70
2019-03-29T09:35:30.685Z,73.00
2019-03-29T09:37:32.131Z,75.60
2019-03-29T09:39:33.283Z,75.90
2019-03-29T09:41:34.537Z,73.60
2019-03-29T09:43:35.689Z,70.50
2019-03-29T09:45:36.844Z,71.30
2019-03-29T09:47:40.627Z,70.10
2019-03-29T09:49:41.051Z,71.70
2019-03-29T09:51:42.196Z,68.60
2019-03-29T09:53:43.359Z,69.40
2019-03-29T09:55:45.857Z,68.80
2019-03-29T09:57:47.394Z,67.60
2019-03-29T09:59:48.547Z,68.00
2019-03-29T10:01:49.684Z,67.50
2019-03-29T10:03:50.965Z,67.80
2019-03-29T10:05:52.127Z,69.80
2019-03-29T10:07:53.384Z,68.20
2019-03-29T10:09:54.546Z,68.20
2019-03-29T10:11:55.941Z,66.80
2019-03-29T10:13:57.107Z,65.80
2019-03-29T10:15:58.258Z,67.40
2019-03-29T10:17:59.520Z,67.00
2019-03-29T10:20:00.680Z,66.00
2019-03-29T10:22:01.826Z,67.70
2019-03-29T10:24:03.039Z,65.90
2019-03-29T10:26:04.187Z,68.40
2019-03-29T10:28:05.379Z,66.60
2019-03-29T10:30:07.540Z,65.90
2019-03-29T10:32:09.577Z,63.30
2019-03-29T10:34:10.836Z,67.10
2019-03-29T10:36:11.862Z,63.10
2019-03-29T10:38:12.935Z,62.90
2019-03-29T10:40:14.097Z,66.70
2019-03-29T10:42:15.190Z,65.30
2019-03-29T10:44:16.376Z,60.70
2019-03-29T10:46:17.734Z,65.00
2019-03-29T10:48:18.769Z,63.20
2019-03-29T10:50:19.846Z,62.40
2019-03-29T10:52:20.874Z,61.80
2019-03-29T10:54:22.071Z,62.80
2019-03-29T10:56:33.889Z,63.30
2019-03-29T10:58:26.385Z,64.50
2019-03-29T11:00:32.533Z,63.00
2019-03-29T11:02:33.678Z,57.60
2019-03-29T11:04:34.837Z,58.80
2019-03-29T11:06:35.879Z,58.40
2019-03-29T11:08:36.913Z,58.90
2019-03-29T11:10:38.258Z,61.70
2019-03-29T11:12:39.299Z,59.30
2019-03-29T11:14:40.626Z,57.90
2019-03-29T11:16:41.799Z,59.30
2019-03-29T11:18:45.671Z,59.50
2019-03-29T11:20:46.037Z,58.10
2019-03-29T11:22:47.296Z,59.60
2019-03-29T11:24:48.554Z,58.30
2019-03-29T11:26:49.709Z,59.20
2019-03-29T11:28:50.925Z,60.00
2019-03-29T11:30:52.072Z,58.30
2019-03-29T11:32:53.212Z,57.30
2019-03-29T11:34:54.370Z,56.50
2019-03-29T11:36:56.131Z,56.60
2019-03-29T11:38:57.402Z,52.30
2019-03-29T11:40:58.551Z,53.70
2019-03-29T11:42:59.698Z,57.70
2019-03-29T11:45:00.852Z,57.60
2019-03-29T11:47:02.371Z,57.50
2019-03-29T11:49:03.401Z,56.60
2019-03-29T11:51:18.370Z,56.80
2019-03-29T11:53:07.586Z,54.00
2019-03-29T11:55:08.890Z,54.80
2019-03-29T11:57:10.155Z,54.50
2019-03-29T11:59:11.656Z,54.40
2019-03-29T12:01:12.754Z,52.30
2019-03-29T12:03:13.929Z,54.00
2019-03-29T12:05:15.115Z,53.10
2019-03-29T12:07:16.537Z,52.60
2019-03-29T12:09:17.697Z,52.60
2019-03-29T12:11:18.836Z,47.20
2019-03-29T12:13:20.003Z,49.00
2019-03-29T12:15:21.255Z,54.30
2019-03-29T12:17:22.402Z,52.50
2019-03-29T12:19:23.610Z,51.70
2019-03-29T12:21:24.754Z,52.40
2019-03-29T12:23:25.893Z,49.40
2019-03-29T12:25:27.149Z,51.20
2019-03-29T12:27:28.357Z,49.90
2019-03-29T12:29:29.520Z,48.90
2019-03-29T12:31:30.677Z,54.30
2019-03-29T12:33:31.814Z,53.20
2019-03-29T12:35:32.857Z,50.40
2019-03-29T12:37:33.878Z,50.20
2019-03-29T12:39:34.928Z,45.80
2019-03-29T12:41:35.949Z,49.50
2019-03-29T12:43:37.089Z,50.10
2019-03-29T12:45:38.446Z,49.30
2019-03-29T12:47:39.589Z,46.70
2019-03-29T12:49:40.747Z,45.80
2019-03-29T12:51:41.886Z,47.10
2019-03-29T12:53:43.116Z,45.20
2019-03-29T12:55:45.162Z,44.60
2019-03-29T12:57:46.191Z,43.30
2019-03-29T12:59:47.414Z,40.40
2019-03-29T13:01:48.588Z,44.60
2019-03-29T13:03:50.010Z,44.80
2019-03-29T13:05:51.078Z,43.60
2019-03-29T13:07:53.288Z,46.70
2019-03-29T13:09:54.535Z,48.20
2019-03-29T13:11:55.553Z,45.40
2019-03-29T13:14:09.624Z,45.30
2019-03-29T13:15:59.637Z,43.50
2019-03-29T13:18:00.733Z,42.10
2019-03-29T13:20:02.775Z,41.10
2019-03-29T13:22:05.714Z,40.00
2019-03-29T13:24:06.758Z,38.80
2019-03-29T13:26:07.786Z,38.90
2019-03-29T13:28:09.215Z,38.20
2019-03-29T13:30:11.142Z,37.00
2019-03-29T13:32:12.162Z,38.30
2019-03-29T13:34:13.198Z,42.40
2019-03-29T13:36:14.714Z,40.60
2019-03-29T13:38:15.801Z,41.60
2019-03-29T13:40:16.837Z,41.00
2019-03-29T13:42:17.889Z,42.10
2019-03-29T13:44:24.064Z,45.50
2019-03-29T13:46:22.423Z,43.60
2019-03-29T13:48:23.662Z,40.70
2019-03-29T13:50:25.029Z,41.70
2019-03-29T13:52:26.049Z,41.40
2019-03-29T13:54:27.099Z,42.10
2019-03-29T13:56:28.220Z,40.20
2019-03-29T13:58:29.349Z,38.60
2019-03-29T14:00:30.384Z,37.30
2019-03-29T14:02:31.420Z,36.70
2019-03-29T14:04:32.461Z,35.50
2019-03-29T14:06:33.610Z,35.20
2019-03-29T14:08:34.753Z,31.50
2019-03-29T14:10:35.798Z,35.00
2019-03-29T14:12:37.716Z,38.80
2019-03-29T14:14:38.958Z,35.70
2019-03-29T14:16:40.323Z,41.10
2019-03-29T14:18:42.489Z,37.70
2019-03-29T14:20:43.658Z,41.60
2019-03-29T14:22:44.776Z,40.30
2019-03-29T14:24:46.142Z,39.40
2019-03-29T14:26:47.284Z,37.20
2019-03-29T14:28:48.325Z,36.60
2019-03-29T14:30:49.381Z,36.40
2019-03-29T14:32:50.710Z,36.40
2019-03-29T14:34:51.740Z,32.90
2019-03-29T14:36:52.779Z,34.10
2019-03-29T14:38:53.884Z,35.10
2019-03-29T14:40:54.928Z,33.70
2019-03-29T14:42:56.069Z,40.00
2019-03-29T14:44:58.473Z,38.10
2019-03-29T14:46:59.540Z,38.00
2019-03-29T14:49:00.606Z,36.20
2019-03-29T14:51:01.707Z,37.40
2019-03-29T14:53:03.031Z,36.80
2019-03-29T14:55:07.370Z,35.70
2019-03-29T14:57:08.443Z,34.60
2019-03-29T14:59:09.496Z,34.50
2019-03-29T15:01:10.547Z,34.10
2019-03-29T15:03:11.589Z,33.60
2019-03-29T15:05:12.834Z,30.60
2019-03-29T15:07:14.107Z,31.80
2019-03-29T15:09:15.170Z,36.40
2019-03-29T15:11:22.506Z,35.10
2019-03-29T15:13:20.047Z,34.50
2019-03-29T15:15:21.094Z,33.80
2019-03-29T15:17:22.126Z,33.20
2019-03-29T15:19:23.278Z,32.80
2019-03-29T15:21:24.345Z,32.00
2019-03-29T15:23:25.435Z,32.50
2019-03-29T15:25:26.462Z,32.30
2019-03-29T15:27:27.516Z,30.80
2019-03-29T15:29:28.525Z,32.00
2019-03-29T15:31:29.688Z,30.20
2019-03-29T15:33:31.146Z,34.60
2019-03-29T15:35:32.170Z,31.70
2019-03-29T15:37:33.214Z,33.50
2019-03-29T15:39:34.440Z,32.60
2019-03-29T15:41:36.019Z,36.00
2019-03-29T15:43:37.050Z,35.90
2019-03-29T15:45:38.242Z,33.90
2019-03-29T15:47:40.515Z,34.70
2019-03-29T15:49:55.129Z,34.70
2019-03-29T15:51:44.850Z,35.40
2019-03-29T15:53:46.139Z,34.80
2019-03-29T15:55:47.199Z,34.30
2019-03-29T15:57:48.250Z,33.60
2019-03-29T15:59:49.279Z,33.20
2019-03-29T16:01:50.375Z,33.00
2019-03-29T16:03:51.714Z,32.70
2019-03-29T16:05:52.767Z,32.90
2019-03-29T16:07:54.046Z,33.50
2019-03-29T16:09:55.072Z,33.30
2019-03-29T16:11:56.143Z,33.20
2019-03-29T16:13:57.281Z,33.20
2019-03-29T16:15:58.456Z,33.80
2019-03-29T16:17:59.594Z,34.30
2019-03-29T16:20:00.628Z,34.00
2019-03-29T16:22:01.659Z,34.10
2019-03-29T16:24:02.799Z,34.40
2019-03-29T16:26:04.138Z,34.40
2019-03-29T16:28:05.325Z,34.70
2019-03-29T16:30:06.817Z,35.20
2019-03-29T16:32:08.033Z,35.60
2019-03-29T16:34:09.327Z,35.10
2019-03-29T16:36:10.774Z,36.20
2019-03-29T16:38:12.218Z,35.80
2019-03-29T16:40:13.569Z,36.10
2019-03-29T16:42:14.787Z,36.50
2019-03-29T16:44:16.093Z,36.60
2019-03-29T16:46:17.873Z,37.40
2019-03-29T16:48:19.054Z,37.80
2019-03-29T16:50:20.352Z,38.50
2019-03-29T16:52:21.613Z,39.30
2019-03-29T16:54:36.728Z,40.40
2019-03-29T16:56:39.689Z,40.90
2019-03-29T16:58:40.984Z,42.20
2019-03-29T17:00:42.248Z,43.60
2019-03-29T17:02:43.507Z,44.30
2019-03-29T17:04:45.950Z,44.60
2019-03-29T17:06:47.478Z,46.10
2019-03-29T17:08:49.098Z,45.80
2019-03-29T17:10:50.185Z,46.20
2019-03-29T17:12:52.341Z,46.80
2019-03-29T17:14:53.810Z,47.60
2019-03-29T17:16:54.954Z,48.20
2019-03-29T17:18:56.106Z,48.60
2019-03-29T17:20:57.388Z,49.30
2019-03-29T17:22:58.726Z,49.30
2019-03-29T17:25:02.729Z,50.00
2019-03-29T17:27:04.218Z,50.10
2019-03-29T17:29:05.378Z,50.60
2019-03-29T17:31:08.425Z,50.90
2019-03-29T17:33:09.719Z,51.00
2019-03-29T17:35:10.870Z,50.90
2019-03-29T17:37:12.051Z,51.00
2019-03-29T17:39:13.201Z,51.10
2019-03-29T17:41:14.678Z,51.30
2019-03-29T17:43:15.861Z,51.30
2019-03-29T17:45:17.194Z,51.80
2019-03-29T17:47:18.537Z,52.10
2019-03-29T17:49:19.776Z,52.00
2019-03-29T17:51:21.075Z,52.20
2019-03-29T17:53:22.213Z,52.20
2019-03-29T17:55:23.377Z,52.50
2019-03-29T17:57:24.703Z,52.70
2019-03-29T17:59:26.259Z,53.10
2019-03-29T18:01:27.282Z,53.40
2019-03-29T18:03:28.742Z,53.50
2019-03-29T18:05:29.894Z,54.10
2019-03-29T18:07:31.434Z,54.40
2019-03-29T18:09:33.001Z,55.20
2019-03-29T18:11:34.292Z,54.60
2019-03-29T18:13:35.430Z,54.40
2019-03-29T18:15:36.641Z,54.50
2019-03-29T18:17:37.869Z,54.70
2019-03-29T18:19:39.018Z,55.20
2019-03-29T18:21:40.367Z,55.20
2019-03-29T18:23:41.569Z,55.40
2019-03-29T18:25:43.128Z,55.40
2019-03-29T18:27:44.293Z,55.60
2019-03-29T18:29:45.446Z,55.80
2019-03-29T18:31:46.589Z,56.00
2019-03-29T18:33:47.737Z,56.50
2019-03-29T18:35:48.925Z,56.70
2019-03-29T18:37:50.353Z,56.90
2019-03-29T18:39:54.804Z,57.40
2019-03-29T18:41:55.157Z,57.30
2019-03-29T18:43:56.314Z,57.50
2019-03-29T18:45:57.502Z,57.70
2019-03-29T18:47:58.712Z,57.90
2019-03-29T18:49:59.971Z,57.90
2019-03-29T18:52:01.120Z,57.70
2019-03-29T18:54:02.477Z,58.00
2019-03-29T18:56:03.634Z,58.30
2019-03-29T18:58:05.980Z,58.90
2019-03-29T19:00:07.682Z,59.20
2019-03-29T19:02:08.815Z,59.40
2019-03-29T19:04:09.971Z,59.40
2019-03-29T19:06:11.132Z,59.50
2019-03-29T19:08:12.574Z,60.60
2019-03-29T19:10:13.935Z,61.60
2019-03-29T19:12:15.177Z,61.80
2019-03-29T19:14:16.347Z,61.40
2019-03-29T19:16:17.515Z,61.90
2019-03-29T19:18:18.669Z,62.00
2019-03-29T19:20:27.452Z,61.80
2019-03-29T19:22:23.439Z,62.40
2019-03-29T19:24:24.833Z,63.10
2019-03-29T19:26:25.981Z,63.60
2019-03-29T19:28:27.401Z,63.80
2019-03-29T19:30:28.574Z,63.90
2019-03-29T19:32:29.941Z,64.30
2019-03-29T19:34:31.114Z,64.60
2019-03-29T19:36:32.270Z,64.60
2019-03-29T19:38:33.449Z,64.30
2019-03-29T19:40:34.805Z,64.30
2019-03-29T19:42:36.067Z,64.50
2019-03-29T19:44:37.338Z,64.90
2019-03-29T19:46:38.767Z,65.50
2019-03-29T19:48:39.962Z,65.50
2019-03-29T19:50:41.739Z,65.20
2019-03-29T19:52:42.891Z,64.90
2019-03-29T19:54:44.101Z,65.40
2019-03-29T19:56:45.310Z,66.00
2019-03-29T19:58:46.574Z,66.60
2019-03-29T20:00:47.949Z,66.70
2019-03-29T20:02:49.415Z,66.90
2019-03-29T20:04:50.664Z,67.50
2019-03-29T20:06:51.827Z,67.40
2019-03-29T20:08:52.973Z,67.40
2019-03-29T20:10:54.148Z,67.80
2019-03-29T20:12:56.002Z,67.90
2019-03-29T20:14:57.160Z,67.90
2019-03-29T20:16:58.326Z,67.90
2019-03-29T20:18:59.474Z,68.20
2019-03-29T20:21:00.623Z,68.30
2019-03-29T20:23:01.846Z,68.60
2019-03-29T20:25:04.317Z,68.70
2019-03-29T20:27:05.510Z,68.90
2019-03-29T20:29:06.862Z,68.90
2019-03-29T20:31:08.125Z,68.70
2019-03-29T20:33:09.303Z,68.50
2019-03-29T20:35:10.522Z,69.00
2019-03-29T20:37:11.878Z,69.30
2019-03-29T20:39:13.029Z,69.60
2019-03-29T20:41:14.233Z,70.00
2019-03-29T20:43:15.370Z,70.00
2019-03-29T20:45:16.627Z,70.20
2019-03-29T20:47:17.868Z,70.00
2019-03-29T20:49:19.099Z,70.20
2019-03-29T20:51:20.294Z,70.40
2019-03-29T20:53:21.462Z,70.30
2019-03-29T20:55:22.698Z,70.70
2019-03-29T20:57:23.871Z,70.80
2019-03-29T20:59:25.120Z,70.90
2019-03-29T21:01:26.365Z,70.90
2019-03-29T21:03:27.519Z,70.90
2019-03-29T21:05:28.727Z,71.20
2019-03-29T21:07:29.958Z,72.50
2019-03-29T21:09:31.095Z,72.60
2019-03-29T21:11:32.342Z,72.40
2019-03-29T21:13:33.520Z,72.60
2019-03-29T21:15:34.735Z,72.80
2019-03-29T21:17:35.886Z,73.00
2019-03-29T21:19:37.034Z,74.40
2019-03-29T21:21:38.247Z,73.50
2019-03-29T21:23:39.394Z,76.80
2019-03-29T21:25:40.549Z,74.60
2019-03-29T21:27:41.717Z,74.30
2019-03-29T21:29:42.903Z,73.70
2019-03-29T21:31:44.083Z,73.90
2019-03-29T21:33:45.218Z,74.20
2019-03-29T21:35:46.405Z,73.80
2019-03-29T21:37:47.663Z,74.20
2019-03-29T21:39:48.808Z,75.30
2019-03-29T21:41:50.042Z,75.60
2019-03-29T21:43:51.199Z,75.50
2019-03-29T21:45:52.350Z,75.50
2019-03-29T21:48:02.308Z,75.20
2019-03-29T21:49:56.622Z,75.10
2019-03-29T21:51:58.311Z,75.20
2019-03-29T21:53:59.579Z,74.90
2019-03-29T21:56:00.838Z,75.40
2019-03-29T21:58:02.073Z,75.50
2019-03-29T22:00:06.873Z,76.00
2019-03-29T22:02:08.052Z,75.80
2019-03-29T22:04:09.205Z,75.90
2019-03-29T22:06:10.359Z,75.90
2019-03-29T22:08:11.659Z,75.70
2019-03-29T22:10:13.109Z,75.80
2019-03-29T22:12:14.359Z,76.10
2019-03-29T22:14:15.723Z,76.10
2019-03-29T22:16:16.869Z,76.20
2019-03-29T22:18:18.039Z,76.00
2019-03-29T22:20:19.194Z,75.70
2019-03-29T22:22:20.367Z,75.60
2019-03-29T22:24:21.610Z,75.70
2019-03-29T22:26:22.765Z,77.50
2019-03-29T22:28:23.934Z,77.10
2019-03-29T22:30:25.081Z,76.70
2019-03-29T22:32:26.250Z,76.30
2019-03-29T22:34:27.450Z,76.40
2019-03-29T22:36:28.613Z,76.50
2019-03-29T22:38:29.869Z,76.90
2019-03-29T22:40:31.071Z,77.50
2019-03-29T22:42:32.235Z,77.80
2019-03-29T22:44:33.432Z,77.80
2019-03-29T22:46:34.672Z,77.90
2019-03-29T22:48:35.840Z,77.80
2019-03-29T22:50:36.998Z,77.80
2019-03-29T22:52:38.230Z,78.00
2019-03-29T22:54:39.383Z,78.30
2019-03-29T22:56:40.582Z,78.20
2019-03-29T22:58:41.746Z,78.20
2019-03-29T23:00:47.202Z,78.10
2019-03-29T23:02:48.372Z,78.00
2019-03-29T23:04:49.539Z,78.00
2019-03-29T23:06:50.782Z,78.40
2019-03-29T23:08:51.953Z,78.70
2019-03-29T23:10:53.103Z,78.40
2019-03-29T23:12:54.276Z,78.40
2019-03-29T23:14:55.430Z,79.10
2019-03-29T23:16:56.598Z,78.80
2019-03-29T23:19:06.501Z,78.60
2019-03-29T23:21:00.815Z,78.60
2019-03-29T23:23:01.978Z,78.30
2019-03-29T23:25:04.044Z,78.30
2019-03-29T23:27:05.186Z,78.40
2019-03-29T23:29:06.358Z,78.60
2019-03-29T23:31:07.659Z,78.70
2019-03-29T23:33:08.895Z,78.70
2019-03-29T23:35:10.042Z,78.60
2019-03-29T23:37:11.298Z,78.40
2019-03-29T23:39:12.468Z,78.40
2019-03-29T23:41:13.619Z,78.60
2019-03-29T23:43:14.781Z,79.00
2019-03-29T23:45:16.038Z,79.00
2019-03-29T23:47:17.188Z,79.00
2019-03-29T23:49:21.353Z,79.00
2019-03-29T23:51:21.530Z,79.80
2019-03-29T23:53:22.784Z,79.20
2019-03-29T23:55:23.922Z,79.60
2019-03-29T23:57:25.128Z,79.30
2019-03-29T23:59:26.273Z,78.90
